CNG8 weather

Greater Niagara General Hospital Heliport
Niagara Falls, Ontario, Canada

Public forecast

Using degrees Celsius for public forecast. Weather courtesy of forecast.io.

Closest aviation weather report (METAR) to Greater Niagara General Hospital Heliport

Report is more than 6 hours old.

Closest report is Niagara District Airport, 6.2 nm (11.5 km) NW. Retrieved 2019/10/22 01:00 UTC (6 hours ago):

CYSN 220100Z 09008KT 15SM SCT100 OVC240 15/09 A2981 RMK AC3CI5 LAST STFD OBS/NEXT 22 1100UTC SLP098 DENSITY ALT 600FT

Closest aviation forecast (TAF) to Greater Niagara General Hospital Heliport

Forecast is more than 6 hours old.

Closest forecast is Niagara District Airport, 6.2 nm (11.5 km) NW. Retrieved 2019/10/21 20:00 UTC (11 hours ago):

TAF CYSN 211938Z 2120/2201 09010G20KT P6SM BKN250 FM220000 12012KT P6SM SCT110 BKN220 RMK NXT FCST WILL BE ISSUED AT 221245Z